Time;durP1;ratioP1;P1;durP2;ratioP2;P2;SDS_P1;SDS_P2;PMS_P1;PMS_P2;Temp;Humidity;BMP_temperature;BMP_pressure;BME280_temperature;BME280_humidity;BME280_pressure;Samples;Min_cycle;Max_cycle;Signal;HPM_P1;HPM_P2
2021/08/06 00:00:38;;;;;;;6.60;2.60;;;;;;;10.74;100.00;93183.84;5075164;28;20210;-80
2021/08/06 00:03:05;;;;;;;6.33;2.63;;;;;;;10.64;100.00;93183.53;5074900;28;20206;-79
2021/08/06 00:05:31;;;;;;;7.53;3.07;;;;;;;10.68;100.00;93183.91;5074933;28;20210;-78
2021/08/06 00:07:57;;;;;;;4.73;2.70;;;;;;;10.64;100.00;93180.09;5074784;28;20203;-78
2021/08/06 00:10:27;;;;;;;5.00;3.20;;;;;;;10.69;100.00;93178.47;5074954;28;20226;-79
2021/08/06 00:12:53;;;;;;;6.20;3.07;;;;;;;10.73;100.00;93163.94;5074859;28;20198;-80
2021/08/06 00:15:19;;;;;;;4.53;3.30;;;;;;;10.79;100.00;93167.53;5074778;28;20571;-80
2021/08/06 00:17:47;;;;;;;12.87;4.00;;;;;;;10.89;100.00;93167.00;5074830;28;20585;-81
2021/08/06 00:20:14;;;;;;;6.57;3.50;;;;;;;10.89;100.00;93167.00;5074151;28;20201;-80
2021/08/06 00:22:41;;;;;;;11.50;3.83;;;;;;;10.92;100.00;93158.72;5074364;28;20573;-79
2021/08/06 00:25:08;;;;;;;8.87;3.77;;;;;;;10.91;100.00;93150.09;5074698;28;20225;-80
2021/08/06 00:27:34;;;;;;;9.40;3.77;;;;;;;10.89;100.00;93144.31;5074547;28;20203;-80
2021/08/06 00:30:01;;;;;;;6.73;4.00;;;;;;;11.06;100.00;93149.75;5074413;28;20226;-78
2021/08/06 00:32:27;;;;;;;6.83;3.80;;;;;;;11.01;100.00;93154.03;5074208;28;20553;-79
2021/08/06 00:34:55;;;;;;;8.83;3.80;;;;;;;10.99;100.00;93138.59;5074273;28;20668;-80
2021/08/06 00:37:21;;;;;;;6.43;3.77;;;;;;;10.99;100.00;93137.75;5074125;28;20589;-81
2021/08/06 00:39:48;;;;;;;10.57;4.10;;;;;;;11.03;100.00;93139.72;5073935;28;20203;-80
2021/08/06 00:42:14;;;;;;;9.80;4.23;;;;;;;11.04;100.00;93136.13;5074155;28;20657;-80
2021/08/06 00:44:41;;;;;;;4.93;3.90;;;;;;;11.11;100.00;93131.59;5074109;28;20237;-80
2021/08/06 00:47:08;;;;;;;6.97;3.93;;;;;;;11.10;100.00;93129.19;5074171;28;20211;-80
2021/08/06 00:49:34;;;;;;;6.60;3.90;;;;;;;11.18;100.00;93128.91;5073977;28;20194;-80
2021/08/06 00:52:02;;;;;;;7.40;3.23;;;;;;;11.08;100.00;93131.25;5073715;28;20230;-79
2021/08/06 00:54:29;;;;;;;5.10;2.97;;;;;;;10.99;100.00;93125.53;5074209;28;20199;-80
2021/08/06 00:56:56;;;;;;;8.00;3.50;;;;;;;10.97;100.00;93116.28;5074163;28;20202;-80
2021/08/06 00:59:22;;;;;;;5.83;3.43;;;;;;;11.01;100.00;93120.88;5073853;28;20210;-80
2021/08/06 01:01:59;;;;;;;6.70;3.80;;;;;;;11.03;100.00;93121.44;5073746;28;20207;-80
2021/08/06 01:04:32;;;;;;;10.87;4.00;;;;;;;11.02;100.00;93121.66;5073698;28;20203;-80
2021/08/06 01:07:01;;;;;;;8.40;4.07;;;;;;;11.08;100.00;93118.19;5073878;28;20199;-80
2021/08/06 01:09:38;;;;;;;8.23;4.13;;;;;;;11.13;100.00;93120.94;5073938;28;20207;-81
2021/08/06 01:12:09;;;;;;;11.93;4.77;;;;;;;11.28;100.00;93107.47;5073699;28;20230;-80
2021/08/06 01:14:37;;;;;;;7.20;4.20;;;;;;;11.34;100.00;93106.59;5073746;28;20226;-80
2021/08/06 01:17:06;;;;;;;11.57;4.73;;;;;;;11.41;100.00;93109.91;5073410;28;20205;-80
2021/08/06 01:19:48;;;;;;;9.97;4.60;;;;;;;11.48;100.00;93112.44;5073788;28;20198;-80
2021/08/06 01:22:16;;;;;;;6.70;4.20;;;;;;;11.56;100.00;93108.72;5073704;28;20245;-80
2021/08/06 01:24:50;;;;;;;7.97;4.95;;;;;;;11.68;100.00;93106.13;5072765;28;20935;-79
2021/08/06 01:27:18;;;;;;;6.60;4.00;;;;;;;11.63;100.00;93104.19;5073592;28;20202;-80
2021/08/06 01:29:45;;;;;;;5.37;3.27;;;;;;;11.67;100.00;93107.94;5074298;28;20199;-79
2021/08/06 01:32:11;;;;;;;8.63;3.17;;;;;;;11.67;100.00;93105.31;5073463;28;20226;-80
2021/08/06 01:34:37;;;;;;;5.90;3.30;;;;;;;11.63;100.00;93106.81;5073385;28;20209;-78
2021/08/06 01:37:04;;;;;;;11.87;3.50;;;;;;;11.65;100.00;93107.38;5073312;28;20202;-79
2021/08/06 01:39:31;;;;;;;8.17;3.40;;;;;;;11.79;100.00;93100.94;5073192;28;20203;-79
2021/08/06 01:42:06;;;;;;;4.07;2.90;;;;;;;11.92;100.00;93104.38;5073149;28;20256;-79
2021/08/06 01:44:37;;;;;;;5.53;3.43;;;;;;;11.95;100.00;93106.56;5073068;28;20325;-80
2021/08/06 01:47:09;;;;;;;6.27;3.27;;;;;;;12.01;100.00;93105.66;5073358;28;20198;-78
2021/08/06 01:49:45;;;;;;;6.77;3.00;;;;;;;12.04;100.00;93105.22;5072719;28;20205;-78
2021/08/06 01:52:14;;;;;;;5.17;2.50;;;;;;;11.98;100.00;93108.72;5072724;28;20723;-80
2021/08/06 01:54:43;;;;;;;8.47;2.63;;;;;;;11.95;100.00;93107.34;5073033;28;20676;-80
2021/08/06 01:57:12;;;;;;;4.80;2.80;;;;;;;11.96;100.00;93100.31;5073088;28;20241;-79
2021/08/06 01:59:40;;;;;;;3.83;2.40;;;;;;;12.03;100.00;93090.53;5073170;28;20206;-80
2021/08/06 02:02:08;;;;;;;2.93;2.40;;;;;;;12.12;100.00;93089.16;5073119;28;20203;-80
2021/08/06 02:04:35;;;;;;;7.83;2.10;;;;;;;12.14;100.00;93081.91;5073202;28;20214;-81
2021/08/06 02:07:02;;;;;;;3.50;2.00;;;;;;;12.19;100.00;93076.78;5073063;28;20213;-80
2021/08/06 02:09:28;;;;;;;7.47;2.27;;;;;;;12.16;100.00;93077.22;5072749;28;20202;-78
2021/08/06 02:11:55;;;;;;;5.90;1.90;;;;;;;12.07;100.00;93080.41;5072847;28;20229;-79
2021/08/06 02:14:22;;;;;;;3.33;2.20;;;;;;;12.06;100.00;93084.84;5072791;28;20205;-80
2021/08/06 02:16:53;;;;;;;3.67;2.30;;;;;;;12.10;100.00;93082.56;5072736;28;20229;-80
2021/08/06 02:19:23;;;;;;;2.85;2.10;;;;;;;12.12;100.00;93083.94;5072683;28;20202;-79
2021/08/06 02:21:53;;;;;;;4.80;2.13;;;;;;;12.14;100.00;93081.91;5072898;28;20202;-77
2021/08/06 02:24:20;;;;;;;4.97;2.43;;;;;;;12.13;100.00;93080.28;5072599;28;20672;-81
2021/08/06 02:26:48;;;;;;;6.90;2.33;;;;;;;12.10;100.00;93075.50;5072701;28;20573;-80
2021/08/06 02:29:16;;;;;;;5.13;2.30;;;;;;;12.12;100.00;93073.47;5072361;28;20201;-80
2021/08/06 02:31:44;;;;;;;3.83;2.70;;;;;;;12.08;100.00;93067.09;5072572;28;20249;-79
2021/08/06 02:34:13;;;;;;;6.60;2.77;;;;;;;12.08;100.00;93066.31;5072645;28;20210;-81
2021/08/06 02:36:40;;;;;;;3.13;2.17;;;;;;;12.11;100.00;93066.66;5072847;28;20221;-80
2021/08/06 02:39:15;;;;;;;8.53;2.23;;;;;;;12.15;100.00;93062.53;5072673;28;20210;-78
2021/08/06 02:41:41;;;;;;;4.03;2.37;;;;;;;12.17;100.00;93059.69;5072560;28;20206;-80
2021/08/06 02:44:08;;;;;;;3.13;2.37;;;;;;;12.13;100.00;93064.59;5072478;28;20253;-81
2021/08/06 02:46:35;;;;;;;4.57;2.20;;;;;;;12.23;100.00;93060.63;5072636;28;20237;-80
2021/08/06 02:49:01;;;;;;;5.00;2.00;;;;;;;12.30;100.00;93058.69;5072638;28;20194;-80
2021/08/06 02:51:29;;;;;;;4.47;2.47;;;;;;;12.32;100.00;93059.25;5072781;28;20237;-80
2021/08/06 02:53:56;;;;;;;7.38;2.80;;;;;;;12.32;100.00;93056.63;5071434;28;20602;-81
2021/08/06 02:56:23;;;;;;;4.23;2.10;;;;;;;12.38;100.00;93055.72;5072322;28;20650;-81
2021/08/06 02:58:50;;;;;;;5.17;2.40;;;;;;;12.42;100.00;93056.84;5072312;28;20206;-80
2021/08/06 03:01:16;;;;;;;4.37;2.37;;;;;;;12.50;100.00;93064.34;5073039;28;20202;-79
2021/08/06 03:03:42;;;;;;;2.37;1.97;;;;;;;12.53;100.00;93058.66;5076301;28;20557;-80
2021/08/06 03:06:09;;;;;;;2.55;1.90;;;;;;;12.58;100.00;93056.13;5076121;28;20195;-81
2021/08/06 03:08:37;;;;;;;5.57;2.13;;;;;;;12.66;100.00;93054.22;5075924;28;20202;-82
2021/08/06 03:11:04;;;;;;;6.63;2.08;;;;;;;12.71;100.00;93046.44;5075869;28;20711;-81
2021/08/06 03:13:30;;;;;;;2.57;2.27;;;;;;;12.72;100.00;93050.66;5076060;28;20712;-81
2021/08/06 03:15:57;;;;;;;3.92;2.55;;;;;;;12.72;100.00;93040.16;5076036;28;20209;-79
2021/08/06 03:18:23;;;;;;;4.35;2.20;;;;;;;12.80;100.00;93036.41;5076106;28;20199;-81
2021/08/06 03:20:50;;;;;;;6.10;2.17;;;;;;;12.77;100.00;93037.66;5075934;28;20194;-81
2021/08/06 03:23:16;;;;;;;2.30;1.90;;;;;;;12.71;100.00;93043.84;5075766;28;20206;-81
2021/08/06 03:25:44;;;;;;;6.17;2.27;;;;;;;12.69;100.00;93038.00;5075532;28;20191;-81
2021/08/06 03:28:10;;;;;;;6.13;2.83;;;;;;;12.67;100.00;93035.63;5075492;28;20210;-80
2021/08/06 03:30:37;;;;;;;8.03;2.17;;;;;;;12.67;100.00;93040.06;5075488;28;20669;-81
2021/08/06 03:33:03;;;;;;;3.17;2.27;;;;;;;12.66;100.00;93036.66;5075910;28;20538;-80
2021/08/06 03:35:30;;;;;;;3.23;1.87;;;;;;;12.70;100.00;93034.38;5075470;28;20206;-80
2021/08/06 03:37:56;;;;;;;6.70;2.17;;;;;;;12.79;100.00;93035.63;5074822;28;20814;-81
2021/08/06 03:40:23;;;;;;;3.83;2.33;;;;;;;12.85;100.00;93034.66;5075465;28;20678;-81
2021/08/06 03:42:50;;;;;;;4.03;1.60;;;;;;;12.92;100.00;93024.88;5074989;28;20221;-81
2021/08/06 03:45:17;;;;;;;3.97;2.17;;;;;;;12.85;100.00;93026.03;5075507;28;20207;-81
2021/08/06 03:47:43;;;;;;;4.47;1.92;;;;;;;12.82;100.00;93022.03;5075443;28;20206;-80
2021/08/06 03:50:10;;;;;;;5.07;2.27;;;;;;;12.89;100.00;93020.09;5075169;28;20199;-82
2021/08/06 03:52:37;;;;;;;2.17;1.60;;;;;;;13.15;100.00;93012.69;5075169;28;20227;-80
2021/08/06 03:55:04;;;;;;;2.10;1.50;;;;;;;13.08;100.00;93015.44;5075168;28;20205;-82
2021/08/06 03:57:30;;;;;;;7.10;1.95;;;;;;;13.02;100.00;93012.97;5074991;28;20203;-81
2021/08/06 03:59:58;;;;;;;5.90;2.10;;;;;;;12.98;100.00;93019.72;5075163;28;20199;-81
2021/08/06 04:02:24;;;;;;;8.47;1.70;;;;;;;13.05;100.00;93025.59;5075025;28;20213;-80
2021/08/06 04:04:51;;;;;;;4.47;2.13;;;;;;;13.03;100.00;93038.16;5074960;28;20565;-81
2021/08/06 04:07:17;;;;;;;2.85;1.60;;;;;;;12.98;100.00;93038.06;5074969;28;20199;-81
2021/08/06 04:09:44;;;;;;;2.97;1.77;;;;;;;12.98;100.00;93032.81;5074783;28;20202;-80
2021/08/06 04:12:10;;;;;;;2.40;1.80;;;;;;;12.96;100.00;93041.69;5074758;28;20589;-81
2021/08/06 04:14:37;;;;;;;2.83;2.05;;;;;;;12.99;100.00;93047.50;5073751;28;20210;-81
2021/08/06 04:17:05;;;;;;;2.10;1.65;;;;;;;13.00;100.00;93049.88;5074828;28;20201;-81
2021/08/06 04:19:31;;;;;;;3.43;1.67;;;;;;;13.04;100.00;93048.41;5074793;28;20214;-80
2021/08/06 04:21:57;;;;;;;4.53;2.28;;;;;;;13.02;100.00;93060.13;5074588;28;20194;-81
2021/08/06 04:24:24;;;;;;;4.37;1.90;;;;;;;13.01;100.00;93069.81;5074492;28;20206;-78
2021/08/06 04:26:50;;;;;;;4.57;2.10;;;;;;;13.04;100.00;93074.59;5074583;28;20198;-79
2021/08/06 04:29:17;;;;;;;3.25;1.92;;;;;;;13.02;100.00;93073.22;5074598;28;20205;-79
2021/08/06 04:31:43;;;;;;;6.55;2.50;;;;;;;13.01;100.00;93074.28;5073859;28;20226;-77
2021/08/06 04:34:11;;;;;;;4.18;2.25;;;;;;;12.96;100.00;93083.63;5074494;28;20199;-78
2021/08/06 04:36:37;;;;;;;7.20;2.13;;;;;;;12.92;100.00;93082.50;5074212;28;20229;-77
2021/08/06 04:39:04;;;;;;;5.40;2.07;;;;;;;12.91;100.00;93082.72;5074155;28;20199;-78
2021/08/06 04:41:31;;;;;;;6.33;2.57;;;;;;;12.92;100.00;93079.06;5074105;28;20246;-79
2021/08/06 04:43:57;;;;;;;4.85;2.45;;;;;;;12.90;100.00;93084.53;5074080;28;20231;-78
2021/08/06 04:46:23;;;;;;;4.70;2.73;;;;;;;12.90;100.00;93079.28;5074149;28;20199;-78
2021/08/06 04:48:50;;;;;;;4.50;2.40;;;;;;;12.91;100.00;93088.75;5073987;28;20238;-80
2021/08/06 04:51:18;;;;;;;3.93;2.50;;;;;;;12.93;100.00;93081.47;5073861;28;20203;-79
2021/08/06 04:53:44;;;;;;;3.40;2.10;;;;;;;12.96;100.00;93083.63;5073827;28;20212;-79
2021/08/06 04:56:11;;;;;;;6.43;2.95;;;;;;;12.96;100.00;93083.63;5073964;28;20203;-79
2021/08/06 04:58:37;;;;;;;3.20;2.30;;;;;;;12.94;100.00;93083.06;5073999;28;20198;-79
2021/08/06 05:01:04;;;;;;;6.05;2.60;;;;;;;12.92;100.00;93077.25;5073896;28;20221;-79
2021/08/06 05:03:30;;;;;;;4.60;2.70;;;;;;;12.91;100.00;93082.72;5073662;28;20203;-78
2021/08/06 05:05:56;;;;;;;4.80;3.00;;;;;;;12.91;100.00;93086.16;5073646;28;20199;-79
2021/08/06 05:08:24;;;;;;;5.40;2.58;;;;;;;12.90;100.00;93076.69;5073587;28;20673;-80
2021/08/06 05:10:51;;;;;;;6.10;2.70;;;;;;;12.89;100.00;93072.47;5073476;28;20669;-79
2021/08/06 05:13:17;;;;;;;4.13;2.60;;;;;;;12.90;100.00;93081.13;5073493;28;20700;-78
2021/08/06 05:15:44;;;;;;;4.90;2.65;;;;;;;12.89;100.00;93080.34;5073686;28;20546;-79
2021/08/06 05:18:10;;;;;;;4.20;2.70;;;;;;;12.91;100.00;93078.28;5073782;28;20198;-80
2021/08/06 05:20:37;;;;;;;6.57;3.00;;;;;;;13.00;100.00;93089.19;5074134;28;20202;-79
2021/08/06 05:23:04;;;;;;;3.50;2.57;;;;;;;13.09;100.00;93085.19;5074073;28;20203;-79
2021/08/06 05:25:34;;;;;;;6.18;3.30;;;;;;;13.14;100.00;93079.25;5073358;28;20213;-78
2021/08/06 05:28:00;;;;;;;3.60;2.78;;;;;;;13.20;100.00;93086.16;5073426;28;20198;-80
2021/08/06 05:30:27;;;;;;;4.63;2.70;;;;;;;13.24;100.00;93086.50;5073427;28;20198;-81
2021/08/06 05:32:53;;;;;;;4.30;2.40;;;;;;;13.25;100.00;93086.25;5073132;28;20233;-78
2021/08/06 05:35:20;;;;;;;3.88;2.55;;;;;;;13.23;100.00;93083.06;5073188;28;20195;-80
2021/08/06 05:37:46;;;;;;;7.57;2.63;;;;;;;13.17;100.00;93085.84;5073302;28;20195;-79
2021/08/06 05:40:14;;;;;;;3.60;2.25;;;;;;;13.37;100.00;93077.59;5073386;28;20289;-80
2021/08/06 05:42:41;;;;;;;7.18;2.50;;;;;;;13.52;100.00;93080.47;5073240;28;20203;-81
2021/08/06 05:45:10;;;;;;;6.28;2.30;;;;;;;13.71;100.00;93083.69;5073164;28;20206;-80
2021/08/06 05:47:47;;;;;;;4.15;1.90;;;;;;;13.84;100.00;93088.66;5073152;28;20553;-81
2021/08/06 05:50:15;;;;;;;4.50;2.05;;;;;;;13.98;100.00;93073.38;5072969;28;20748;-80
2021/08/06 05:52:43;;;;;;;2.97;1.75;;;;;;;13.94;100.00;93064.41;5073125;28;20577;-78
2021/08/06 05:55:10;;;;;;;3.15;1.63;;;;;;;14.03;100.00;93064.78;5072310;28;20442;-82
2021/08/06 05:57:37;;;;;;;3.00;1.48;;;;;;;14.07;100.00;93079.81;5072560;28;20198;-82
2021/08/06 06:00:07;;;;;;;3.55;1.48;;;;;;;14.21;100.00;93067.16;5072969;28;20558;-81
2021/08/06 06:02:34;;;;;;;1.63;1.05;;;;;;;14.40;100.00;93069.53;5073015;28;20248;-80
2021/08/06 06:05:00;;;;;;;1.90;1.25;;;;;;;14.42;100.00;93076.13;5073067;28;20558;-80
2021/08/06 06:07:27;;;;;;;5.18;1.40;;;;;;;14.60;100.00;93071.66;5073152;28;20228;-80
2021/08/06 06:09:54;;;;;;;5.60;1.30;;;;;;;14.77;100.00;93080.31;5073017;28;20202;-80
2021/08/06 06:12:20;;;;;;;4.25;1.33;;;;;;;15.10;100.00;93089.09;5072715;28;20241;-81
2021/08/06 06:14:46;;;;;;;2.20;1.17;;;;;;;15.25;100.00;93090.31;5072834;28;20205;-82
2021/08/06 06:17:15;;;;;;;1.38;1.10;;;;;;;15.26;100.00;93091.94;5073011;28;20194;-80
2021/08/06 06:19:44;;;;;;;4.72;1.45;;;;;;;15.08;100.00;93090.41;5072807;28;20658;-81
2021/08/06 06:22:11;;;;;;;4.13;1.30;;;;;;;14.98;100.00;93091.84;5072936;28;20209;-81
2021/08/06 06:24:37;;;;;;;5.13;1.13;;;;;;;14.87;100.00;93091.97;5072740;28;20195;-81
2021/08/06 06:27:06;;;;;;;3.67;1.38;;;;;;;14.84;100.00;93095.91;5072574;28;20199;-82
2021/08/06 06:29:33;;;;;;;3.15;1.60;;;;;;;14.92;100.00;93097.28;5072503;28;20210;-80
2021/08/06 06:31:59;;;;;;;5.10;1.60;;;;;;;15.26;100.00;93103.22;5071906;28;20715;-80
2021/08/06 06:34:27;;;;;;;3.08;1.38;;;;;;;15.58;100.00;93099.09;5072688;28;20199;-82
2021/08/06 06:36:53;;;;;;;4.43;1.58;;;;;;;15.76;100.00;93090.09;5074240;28;20214;-82
2021/08/06 06:39:20;;;;;;;4.53;1.30;;;;;;;16.12;100.00;93093.84;5076664;28;20296;-80
2021/08/06 06:41:46;;;;;;;2.50;1.35;;;;;;;16.44;100.00;93090.38;5076295;28;20194;-81
2021/08/06 06:44:12;;;;;;;4.60;1.67;;;;;;;16.62;100.00;93089.16;5076263;28;20716;-81
2021/08/06 06:46:39;;;;;;;2.53;1.20;;;;;;;16.52;100.00;93097.00;5076523;28;20290;-81
2021/08/06 06:49:05;;;;;;;4.43;2.03;;;;;;;16.50;100.00;93104.38;5076565;28;20199;-80
2021/08/06 06:51:33;;;;;;;4.07;1.30;;;;;;;16.31;100.00;93115.31;5076385;28;20595;-78
2021/08/06 06:53:59;;;;;;;2.15;1.30;;;;;;;16.19;100.00;93133.91;5076227;28;20627;-79
2021/08/06 06:56:26;;;;;;;4.22;1.10;;;;;;;15.99;100.00;93139.00;5076187;28;20653;-80
2021/08/06 06:58:53;;;;;;;1.27;1.00;;;;;;;15.86;100.00;93122.56;5076212;28;20561;-79
2021/08/06 07:01:20;;;;;;;1.65;1.00;;;;;;;15.73;100.00;93120.28;5076329;28;20206;-82
2021/08/06 07:03:46;;;;;;;4.15;1.20;;;;;;;15.91;100.00;93112.06;5076266;28;20553;-80
2021/08/06 07:06:13;;;;;;;2.85;1.00;;;;;;;16.02;100.00;93126.13;5076085;28;20201;-81
2021/08/06 07:08:40;;;;;;;2.13;1.30;;;;;;;16.00;100.00;93119.53;5076309;28;20653;-82
2021/08/06 07:11:07;;;;;;;2.90;1.20;;;;;;;16.18;100.00;93119.16;5076326;28;20585;-81
2021/08/06 07:13:33;;;;;;;3.35;0.93;;;;;;;16.37;100.00;93129.28;5076035;28;20226;-82
2021/08/06 07:16:00;;;;;;;4.18;1.33;;;;;;;16.53;100.00;93125.72;5076136;28;20198;-81
2021/08/06 07:18:27;;;;;;;1.50;0.90;;;;;;;16.64;100.00;93130.03;5075902;28;20195;-81
2021/08/06 07:20:53;;;;;;;4.47;1.08;;;;;;;16.68;100.00;93129.53;5075939;28;20281;-82
2021/08/06 07:23:20;;;;;;;5.45;1.08;;;;;;;16.94;100.00;93136.56;5075559;28;20289;-81
2021/08/06 07:25:48;;;;;;;1.73;1.00;;;;;;;17.11;100.00;93148.78;5075584;28;20199;-81
2021/08/06 07:28:14;;;;;;;2.55;0.90;;;;;;;17.00;100.00;93150.56;5074627;28;20427;-80
2021/08/06 07:30:40;;;;;;;4.57;1.08;;;;;;;16.97;100.00;93143.16;5075746;28;20572;-81
2021/08/06 07:33:07;;;;;;;3.20;1.13;;;;;;;16.97;100.00;93146.59;5075641;28;20236;-81
2021/08/06 07:35:33;;;;;;;2.10;0.90;;;;;;;17.11;100.00;93156.69;5075530;28;20202;-80
2021/08/06 07:38:00;;;;;;;4.63;0.90;;;;;;;16.85;100.00;93161.81;5075369;28;20733;-79
2021/08/06 07:40:27;;;;;;;3.85;0.70;;;;;;;16.85;100.00;93168.94;5075269;28;20206;-78
2021/08/06 07:42:55;;;;;;;1.15;0.77;;;;;;;16.87;100.00;93167.66;5075065;28;20569;-78
2021/08/06 07:45:22;;;;;;;7.10;1.00;;;;;;;16.96;100.00;93160.84;5075529;28;20194;-81
2021/08/06 07:47:49;;;;;;;3.97;0.93;;;;;;;17.08;100.00;93152.72;5074133;28;20207;-81
2021/08/06 07:50:16;;;;;;;1.08;0.60;;;;;;;17.19;100.00;93130.63;5075188;28;20202;-82
2021/08/06 07:52:43;;;;;;;2.15;0.90;;;;;;;17.12;100.00;93158.28;5074993;28;20578;-81
2021/08/06 07:55:12;;;;;;;1.58;0.73;;;;;;;17.09;100.00;93164.88;5075041;28;20202;-80
2021/08/06 07:57:39;;;;;;;1.77;0.93;;;;;;;16.77;100.00;93156.97;5075235;28;20203;-81
2021/08/06 08:00:08;;;;;;;0.70;0.57;;;;;;;16.92;100.00;93172.94;5075146;28;20561;-80
2021/08/06 08:02:36;;;;;;;0.93;0.60;;;;;;;16.47;100.00;93179.47;5074421;28;20211;-80
2021/08/06 08:05:03;;;;;;;3.33;1.02;;;;;;;16.55;100.00;93170.28;5074965;28;20276;-80
2021/08/06 08:07:29;;;;;;;1.88;0.82;;;;;;;16.82;100.00;93162.31;5075106;28;20291;-81
2021/08/06 08:09:56;;;;;;;1.58;0.80;;;;;;;16.72;100.00;93164.84;5074855;28;20203;-80
2021/08/06 08:12:22;;;;;;;2.83;0.70;;;;;;;17.10;100.00;93166.47;5074329;28;20430;-80
2021/08/06 08:14:49;;;;;;;1.42;0.73;;;;;;;17.33;100.00;93165.22;5075028;28;20194;-82
2021/08/06 08:17:18;;;;;;;1.98;0.80;;;;;;;17.35;100.00;93162.34;5074718;28;20242;-80
2021/08/06 08:19:45;;;;;;;2.97;0.80;;;;;;;17.51;100.00;93171.91;5074454;28;20547;-80
2021/08/06 08:22:11;;;;;;;3.75;0.98;;;;;;;17.76;100.00;93179.13;5074794;28;20238;-78
2021/08/06 08:24:38;;;;;;;2.58;0.50;;;;;;;17.64;100.00;93183.84;5074250;28;20191;-80
2021/08/06 08:27:05;;;;;;;1.77;0.73;;;;;;;17.34;100.00;93187.94;5073993;28;20235;-81
2021/08/06 08:29:31;;;;;;;1.15;0.70;;;;;;;17.27;100.00;93195.31;5074598;28;20214;-78
2021/08/06 08:31:58;;;;;;;4.75;0.95;;;;;;;17.35;100.00;93189.53;5074481;28;20223;-80
2021/08/06 08:34:25;;;;;;;3.00;0.70;;;;;;;17.24;100.00;93179.97;5074416;28;20230;-85
2021/08/06 08:36:52;;;;;;;3.22;0.75;;;;;;;17.76;100.00;93187.03;5074416;28;20195;-82
2021/08/06 08:39:19;;;;;;;3.17;0.93;;;;;;;17.70;97.50;93174.91;5074449;28;20195;-81
2021/08/06 08:41:46;;;;;;;2.78;0.98;;;;;;;17.67;100.00;93180.69;5074221;28;20244;-81
2021/08/06 08:44:12;;;;;;;3.55;0.80;;;;;;;17.48;100.00;93174.28;5074155;28;20227;-82
2021/08/06 08:46:39;;;;;;;1.10;0.82;;;;;;;17.38;100.00;93190.84;5074061;28;20565;-80
2021/08/06 08:49:06;;;;;;;1.40;0.85;;;;;;;17.45;100.00;93167.66;5074268;28;20195;-78
2021/08/06 08:51:35;;;;;;;3.72;0.75;;;;;;;17.36;100.00;93190.31;5073857;28;20198;-81
2021/08/06 08:54:02;;;;;;;2.38;0.80;;;;;;;17.01;100.00;93189.88;5073875;28;20625;-81
2021/08/06 08:56:29;;;;;;;3.13;0.80;;;;;;;16.89;99.21;93217.50;5073856;28;20718;-80
2021/08/06 08:58:56;;;;;;;4.40;0.93;;;;;;;16.85;100.00;93205.84;5072418;28;20438;-81
2021/08/06 09:01:23;;;;;;;1.60;0.75;;;;;;;17.14;100.00;93199.19;5074032;28;20194;-80
2021/08/06 09:03:50;;;;;;;4.97;0.80;;;;;;;17.62;97.89;93193.88;5074412;28;20226;-82
2021/08/06 09:06:17;;;;;;;6.53;0.90;;;;;;;18.21;94.87;93198.03;5073931;28;20280;-82
2021/08/06 09:08:46;;;;;;;2.38;0.77;;;;;;;18.43;93.31;93208.34;5073747;28;20207;-79
2021/08/06 09:11:28;;;;;;;0.60;0.60;;;;;;;18.16;90.85;93197.22;5073629;28;20302;-79
2021/08/06 09:13:54;;;;;;;7.75;1.20;;;;;;;18.38;91.83;93210.19;5073347;28;20226;-79
2021/08/06 09:16:21;;;;;;;2.88;0.70;;;;;;;18.39;89.04;93199.38;5073761;28;20293;-80
2021/08/06 09:18:47;;;;;;;3.20;0.80;;;;;;;18.79;86.83;93195.16;5073419;28;20626;-80
2021/08/06 09:21:23;;;;;;;2.92;1.00;;;;;;;19.07;85.12;93185.09;5072725;28;20263;-79
2021/08/06 09:23:54;;;;;;;1.15;0.68;;;;;;;19.58;88.44;93173.56;5073458;28;20203;-81
2021/08/06 09:26:33;;;;;;;1.90;0.75;;;;;;;19.28;86.00;93190.34;5073319;28;20195;-80
2021/08/06 09:29:07;;;;;;;2.67;0.80;;;;;;;18.45;89.02;93206.25;5072693;28;20209;-82
2021/08/06 09:31:36;;;;;;;1.85;0.68;;;;;;;18.54;90.11;93211.03;5073508;28;20562;-82
2021/08/06 09:34:11;;;;;;;2.75;0.70;;;;;;;18.54;88.85;93208.38;5073210;28;20226;-81
2021/08/06 09:36:38;;;;;;;1.75;0.65;;;;;;;18.41;94.25;93193.81;5073227;28;20194;-82
2021/08/06 09:39:17;;;;;;;1.58;0.68;;;;;;;19.03;84.48;93189.31;5073001;28;20209;-81
2021/08/06 09:41:46;;;;;;;1.13;0.50;;;;;;;19.04;84.33;93190.91;5073179;28;20199;-79
2021/08/06 09:44:17;;;;;;;1.63;0.50;;;;;;;19.33;86.27;93196.41;5072725;28;20229;-80
2021/08/06 09:46:44;;;;;;;1.35;0.70;;;;;;;19.02;82.98;93190.41;5073086;28;20205;-81
2021/08/06 09:49:12;;;;;;;2.65;0.85;;;;;;;19.39;85.75;93197.19;5072788;28;20211;-81
2021/08/06 09:51:41;;;;;;;2.63;0.57;;;;;;;19.39;80.74;93200.63;5073324;28;20207;-81
2021/08/06 09:54:23;;;;;;;1.90;0.80;;;;;;;19.09;80.24;93221.88;5073039;28;20226;-78
2021/08/06 09:57:03;;;;;;;3.95;0.60;;;;;;;18.63;84.43;93185.63;5073023;28;20202;-81
2021/08/06 09:59:34;;;;;;;0.90;0.70;;;;;;;18.49;85.48;93207.31;5073136;28;20203;-81
2021/08/06 10:02:19;;;;;;;3.00;0.63;;;;;;;18.19;86.07;93208.06;5072907;28;20203;-83
2021/08/06 10:04:56;;;;;;;3.22;0.70;;;;;;;18.48;84.09;93208.38;5073065;28;20202;-80
2021/08/06 10:07:23;;;;;;;1.48;0.50;;;;;;;18.55;81.64;93202.81;5072811;28;20607;-81
2021/08/06 10:09:51;;;;;;;2.90;0.70;;;;;;;18.62;83.69;93218.44;5072919;28;20649;-80
2021/08/06 10:12:17;;;;;;;1.17;0.60;;;;;;;19.14;81.67;93211.28;5071927;28;20206;-80
2021/08/06 10:14:44;;;;;;;2.83;0.90;;;;;;;18.97;83.26;93212.34;5073012;28;20227;-80
2021/08/06 10:17:12;;;;;;;5.70;0.90;;;;;;;19.08;82.20;93209.69;5072707;28;20199;-81
2021/08/06 10:19:41;;;;;;;1.20;0.63;;;;;;;18.96;81.95;93215.25;5072780;28;20285;-80
2021/08/06 10:22:08;;;;;;;2.25;0.70;;;;;;;18.62;81.72;93218.44;5072692;28;20206;-81
2021/08/06 10:24:37;;;;;;;1.48;0.80;;;;;;;18.65;85.11;93225.81;5072752;28;20219;-84
2021/08/06 10:27:05;;;;;;;1.38;0.70;;;;;;;18.65;84.68;93225.81;5072396;28;20785;-82
2021/08/06 10:29:32;;;;;;;1.92;0.70;;;;;;;19.37;82.07;93215.22;5072675;28;20206;-83
2021/08/06 10:32:14;;;;;;;1.55;0.65;;;;;;;19.90;76.61;93199.69;5072991;28;20202;-81
2021/08/06 10:35:12;;;;;;;1.50;0.50;;;;;;;19.41;78.31;93224.19;5073017;28;20282;-82
2021/08/06 10:37:50;;;;;;;2.10;0.80;;;;;;;19.32;82.47;93217.88;5072544;28;20195;-81
2021/08/06 10:41:01;;;;;;;2.08;0.80;;;;;;;19.09;79.05;93214.72;5072659;28;20209;-82
2021/08/06 10:47:02;;;;;;;2.83;0.80;;;;;;;19.04;82.13;93209.44;5049592;28;20214;-80
2021/08/06 10:49:30;;;;;;;1.70;0.70;;;;;;;18.74;83.38;93205.72;5072508;28;20203;-81
2021/08/06 10:52:15;;;;;;;1.73;0.88;;;;;;;18.91;87.54;93202.03;5072305;28;20213;-80
2021/08/06 10:54:42;;;;;;;2.35;0.98;;;;;;;18.90;84.94;93201.25;5072535;28;20230;-80
2021/08/06 10:57:24;;;;;;;3.13;0.85;;;;;;;19.17;84.11;93210.75;5072509;28;20290;-81
2021/08/06 10:59:54;;;;;;;2.35;1.05;;;;;;;19.57;84.92;93203.75;5072505;28;20572;-81
2021/08/06 11:02:40;;;;;;;1.80;1.00;;;;;;;19.37;75.94;93204.63;5072351;28;20256;-79
2021/08/06 11:05:32;;;;;;;1.90;0.60;;;;;;;19.67;82.48;93209.00;5072507;28;20237;-81
2021/08/06 11:08:01;;;;;;;4.47;0.80;;;;;;;20.03;80.43;93200.13;5072322;28;20198;-80
2021/08/06 11:10:51;;;;;;;2.03;0.75;;;;;;;19.91;79.40;93201.25;5072330;28;20231;-81
2021/08/06 11:13:53;;;;;;;2.85;1.02;;;;;;;19.88;77.63;93196.50;5071085;28;20446;-80
2021/08/06 11:16:22;;;;;;;2.97;0.57;;;;;;;20.50;83.02;93198.78;5072403;28;20205;-80
2021/08/06 11:18:58;;;;;;;7.25;0.98;;;;;;;20.55;75.63;93212.03;5072177;28;20206;-81
2021/08/06 11:21:25;;;;;;;2.20;0.85;;;;;;;20.03;77.35;93206.22;5072320;28;20281;-81
2021/08/06 11:24:10;;;;;;;3.38;0.80;;;;;;;19.74;78.42;93204.22;5075043;28;20210;-81
2021/08/06 11:26:36;;;;;;;7.70;0.98;;;;;;;19.65;82.76;93194.44;5075820;28;20202;-77
2021/08/06 11:29:16;;;;;;;5.85;1.27;;;;;;;19.80;83.15;93191.78;5075547;28;20561;-81
2021/08/06 11:31:58;;;;;;;3.67;0.98;;;;;;;20.52;80.61;93186.06;5075810;28;20222;-78
2021/08/06 11:34:28;;;;;;;3.65;0.90;;;;;;;20.46;76.50;93203.06;5075606;28;20226;-79
2021/08/06 11:37:00;;;;;;;1.10;0.52;;;;;;;20.09;78.02;93193.75;5075712;28;20209;-82